sensor_id;sensor_type;location;lat;lon;timestamp;temperature;humidity
15959;DHT22;8078;47.822;9.402;2023-08-24T00:01:33;20.20;86.90
15959;DHT22;8078;47.822;9.402;2023-08-24T00:03:59;20.20;80.20
15959;DHT22;8078;47.822;9.402;2023-08-24T00:06:24;20.20;86.30
15959;DHT22;8078;47.822;9.402;2023-08-24T00:08:50;20.20;91.40
15959;DHT22;8078;47.822;9.402;2023-08-24T00:11:16;20.10;91.30
15959;DHT22;8078;47.822;9.402;2023-08-24T00:13:42;20.10;90.70
15959;DHT22;8078;47.822;9.402;2023-08-24T00:16:20;20.10;93.20
15959;DHT22;8078;47.822;9.402;2023-08-24T00:18:46;20.10;92.60
15959;DHT22;8078;47.822;9.402;2023-08-24T00:21:16;20.10;98.10
15959;DHT22;8078;47.822;9.402;2023-08-24T00:23:48;20.10;94.30
15959;DHT22;8078;47.822;9.402;2023-08-24T00:26:14;20.00;95.70
15959;DHT22;8078;47.822;9.402;2023-08-24T00:28:42;20.00;93.10
15959;DHT22;8078;47.822;9.402;2023-08-24T00:31:08;20.00;94.60
15959;DHT22;8078;47.822;9.402;2023-08-24T00:33:33;20.00;92.30
15959;DHT22;8078;47.822;9.402;2023-08-24T00:36:00;20.00;95.70
15959;DHT22;8078;47.822;9.402;2023-08-24T00:38:27;19.90;93.60
15959;DHT22;8078;47.822;9.402;2023-08-24T00:40:52;19.90;92.70
15959;DHT22;8078;47.822;9.402;2023-08-24T00:43:20;19.90;85.80
15959;DHT22;8078;47.822;9.402;2023-08-24T00:45:51;19.90;87.70
15959;DHT22;8078;47.822;9.402;2023-08-24T00:48:18;19.90;88.10
15959;DHT22;8078;47.822;9.402;2023-08-24T00:50:44;19.90;84.70
15959;DHT22;8078;47.822;9.402;2023-08-24T00:53:09;19.90;83.70
15959;DHT22;8078;47.822;9.402;2023-08-24T00:55:35;19.90;82.60
15959;DHT22;8078;47.822;9.402;2023-08-24T00:58:02;19.90;81.50
15959;DHT22;8078;47.822;9.402;2023-08-24T01:00:28;19.80;79.60
15959;DHT22;8078;47.822;9.402;2023-08-24T01:02:54;19.80;77.70
15959;DHT22;8078;47.822;9.402;2023-08-24T01:05:19;19.80;77.20
15959;DHT22;8078;47.822;9.402;2023-08-24T01:07:45;19.80;84.50
15959;DHT22;8078;47.822;9.402;2023-08-24T01:10:11;19.80;77.70
15959;DHT22;8078;47.822;9.402;2023-08-24T01:12:55;19.70;80.50
15959;DHT22;8078;47.822;9.402;2023-08-24T01:15:31;19.70;91.60
15959;DHT22;8078;47.822;9.402;2023-08-24T01:18:02;19.60;91.20
15959;DHT22;8078;47.822;9.402;2023-08-24T01:20:30;19.60;94.70
15959;DHT22;8078;47.822;9.402;2023-08-24T01:23:07;19.60;93.70
15959;DHT22;8078;47.822;9.402;2023-08-24T01:26:00;19.50;91.00
15959;DHT22;8078;47.822;9.402;2023-08-24T01:28:27;19.50;92.00
15959;DHT22;8078;47.822;9.402;2023-08-24T01:30:53;19.50;93.40
15959;DHT22;8078;47.822;9.402;2023-08-24T01:33:18;19.40;94.80
15959;DHT22;8078;47.822;9.402;2023-08-24T01:35:44;19.40;89.70
15959;DHT22;8078;47.822;9.402;2023-08-24T01:38:09;19.40;92.50
15959;DHT22;8078;47.822;9.402;2023-08-24T01:43:20;19.30;75.80
15959;DHT22;8078;47.822;9.402;2023-08-24T01:45:47;19.30;92.20
15959;DHT22;8078;47.822;9.402;2023-08-24T01:48:14;19.20;93.50
15959;DHT22;8078;47.822;9.402;2023-08-24T01:50:41;19.20;95.40
15959;DHT22;8078;47.822;9.402;2023-08-24T01:53:07;19.20;98.60
15959;DHT22;8078;47.822;9.402;2023-08-24T01:55:32;19.20;99.70
15959;DHT22;8078;47.822;9.402;2023-08-24T01:57:58;19.10;97.80
15959;DHT22;8078;47.822;9.402;2023-08-24T02:00:24;19.10;98.00
15959;DHT22;8078;47.822;9.402;2023-08-24T02:02:49;19.10;98.00
15959;DHT22;8078;47.822;9.402;2023-08-24T02:05:15;19.10;98.60
15959;DHT22;8078;47.822;9.402;2023-08-24T02:07:40;19.10;97.90
15959;DHT22;8078;47.822;9.402;2023-08-24T02:10:07;19.10;98.90
15959;DHT22;8078;47.822;9.402;2023-08-24T02:12:32;19.10;99.30
15959;DHT22;8078;47.822;9.402;2023-08-24T02:14:58;19.10;97.90
15959;DHT22;8078;47.822;9.402;2023-08-24T02:17:23;19.10;99.30
15959;DHT22;8078;47.822;9.402;2023-08-24T02:19:49;19.10;99.10
15959;DHT22;8078;47.822;9.402;2023-08-24T02:22:15;19.00;98.80
15959;DHT22;8078;47.822;9.402;2023-08-24T02:24:41;19.00;99.90
15959;DHT22;8078;47.822;9.402;2023-08-24T02:27:06;19.00;98.80
15959;DHT22;8078;47.822;9.402;2023-08-24T02:29:32;19.00;98.60
15959;DHT22;8078;47.822;9.402;2023-08-24T02:31:57;19.00;99.90
15959;DHT22;8078;47.822;9.402;2023-08-24T02:34:23;18.90;99.90
15959;DHT22;8078;47.822;9.402;2023-08-24T02:36:49;18.90;99.90
15959;DHT22;8078;47.822;9.402;2023-08-24T02:39:14;18.90;99.90
15959;DHT22;8078;47.822;9.402;2023-08-24T02:41:40;18.80;99.90
15959;DHT22;8078;47.822;9.402;2023-08-24T02:46:31;18.80;99.90
15959;DHT22;8078;47.822;9.402;2023-08-24T02:48:57;18.70;99.90
15959;DHT22;8078;47.822;9.402;2023-08-24T02:51:23;18.70;99.90
15959;DHT22;8078;47.822;9.402;2023-08-24T02:53:49;18.70;99.90
15959;DHT22;8078;47.822;9.402;2023-08-24T02:56:16;18.70;99.90
15959;DHT22;8078;47.822;9.402;2023-08-24T02:58:41;18.70;99.90
15959;DHT22;8078;47.822;9.402;2023-08-24T03:01:07;18.70;99.90
15959;DHT22;8078;47.822;9.402;2023-08-24T03:03:34;18.60;99.90
15959;DHT22;8078;47.822;9.402;2023-08-24T03:06:02;18.60;99.90
15959;DHT22;8078;47.822;9.402;2023-08-24T03:08:29;18.60;99.90
15959;DHT22;8078;47.822;9.402;2023-08-24T03:10:56;18.60;99.90
15959;DHT22;8078;47.822;9.402;2023-08-24T03:13:21;18.60;99.90
15959;DHT22;8078;47.822;9.402;2023-08-24T03:15:47;18.60;99.90
15959;DHT22;8078;47.822;9.402;2023-08-24T03:18:16;18.60;99.90
15959;DHT22;8078;47.822;9.402;2023-08-24T03:20:43;18.60;99.90
15959;DHT22;8078;47.822;9.402;2023-08-24T03:23:09;18.60;99.90
15959;DHT22;8078;47.822;9.402;2023-08-24T03:25:38;18.60;99.90
15959;DHT22;8078;47.822;9.402;2023-08-24T03:28:04;18.60;99.90
15959;DHT22;8078;47.822;9.402;2023-08-24T03:30:30;18.60;99.90
15959;DHT22;8078;47.822;9.402;2023-08-24T03:32:56;18.60;99.90
15959;DHT22;8078;47.822;9.402;2023-08-24T03:35:22;18.50;99.90
15959;DHT22;8078;47.822;9.402;2023-08-24T03:37:47;18.50;99.90
15959;DHT22;8078;47.822;9.402;2023-08-24T03:40:13;18.50;99.90
15959;DHT22;8078;47.822;9.402;2023-08-24T03:42:39;18.50;99.90
15959;DHT22;8078;47.822;9.402;2023-08-24T03:45:05;18.50;99.90
15959;DHT22;8078;47.822;9.402;2023-08-24T03:47:31;18.50;99.90
15959;DHT22;8078;47.822;9.402;2023-08-24T03:49:56;18.50;99.90
15959;DHT22;8078;47.822;9.402;2023-08-24T03:52:22;18.50;99.90
15959;DHT22;8078;47.822;9.402;2023-08-24T03:54:48;18.50;99.90
15959;DHT22;8078;47.822;9.402;2023-08-24T03:57:14;18.40;99.90
15959;DHT22;8078;47.822;9.402;2023-08-24T03:59:40;18.40;99.90
15959;DHT22;8078;47.822;9.402;2023-08-24T04:02:06;18.40;99.90
15959;DHT22;8078;47.822;9.402;2023-08-24T04:04:32;18.30;99.90
15959;DHT22;8078;47.822;9.402;2023-08-24T04:06:57;18.30;99.90
15959;DHT22;8078;47.822;9.402;2023-08-24T04:09:23;18.30;99.90
15959;DHT22;8078;47.822;9.402;2023-08-24T04:11:49;18.30;99.90
15959;DHT22;8078;47.822;9.402;2023-08-24T04:14:14;18.30;99.90
15959;DHT22;8078;47.822;9.402;2023-08-24T04:16:40;18.30;99.90
15959;DHT22;8078;47.822;9.402;2023-08-24T04:19:07;18.30;99.90
15959;DHT22;8078;47.822;9.402;2023-08-24T04:21:33;18.30;99.90
15959;DHT22;8078;47.822;9.402;2023-08-24T04:23:58;18.30;99.90
15959;DHT22;8078;47.822;9.402;2023-08-24T04:26:24;18.40;99.90
15959;DHT22;8078;47.822;9.402;2023-08-24T04:28:50;18.40;99.90
15959;DHT22;8078;47.822;9.402;2023-08-24T04:31:16;18.40;99.90
15959;DHT22;8078;47.822;9.402;2023-08-24T04:33:41;18.50;99.90
15959;DHT22;8078;47.822;9.402;2023-08-24T04:36:07;18.50;99.90
15959;DHT22;8078;47.822;9.402;2023-08-24T04:38:32;18.50;99.90
15959;DHT22;8078;47.822;9.402;2023-08-24T04:40:58;18.50;99.90
15959;DHT22;8078;47.822;9.402;2023-08-24T04:43:24;18.60;99.90
15959;DHT22;8078;47.822;9.402;2023-08-24T04:45:54;18.70;99.90
15959;DHT22;8078;47.822;9.402;2023-08-24T04:48:21;18.70;99.90
15959;DHT22;8078;47.822;9.402;2023-08-24T04:50:50;18.80;99.90
15959;DHT22;8078;47.822;9.402;2023-08-24T04:53:17;18.90;99.90
15959;DHT22;8078;47.822;9.402;2023-08-24T04:55:43;19.00;99.90
15959;DHT22;8078;47.822;9.402;2023-08-24T04:58:10;19.10;99.90
15959;DHT22;8078;47.822;9.402;2023-08-24T05:00:36;19.20;99.90
15959;DHT22;8078;47.822;9.402;2023-08-24T05:03:03;19.30;99.90
15959;DHT22;8078;47.822;9.402;2023-08-24T05:05:29;19.50;99.90
15959;DHT22;8078;47.822;9.402;2023-08-24T05:07:55;19.60;99.90
15959;DHT22;8078;47.822;9.402;2023-08-24T05:10:21;19.70;99.90
15959;DHT22;8078;47.822;9.402;2023-08-24T05:12:47;19.70;99.90
15959;DHT22;8078;47.822;9.402;2023-08-24T05:15:12;19.80;99.90
15959;DHT22;8078;47.822;9.402;2023-08-24T05:17:39;19.90;99.90
15959;DHT22;8078;47.822;9.402;2023-08-24T05:20:08;19.90;99.90
15959;DHT22;8078;47.822;9.402;2023-08-24T05:22:37;19.90;99.90
15959;DHT22;8078;47.822;9.402;2023-08-24T05:25:03;20.00;99.90
15959;DHT22;8078;47.822;9.402;2023-08-24T05:27:30;20.00;99.90
15959;DHT22;8078;47.822;9.402;2023-08-24T05:29:56;20.00;99.90
15959;DHT22;8078;47.822;9.402;2023-08-24T05:32:21;19.90;99.90
15959;DHT22;8078;47.822;9.402;2023-08-24T05:34:47;19.90;99.90
15959;DHT22;8078;47.822;9.402;2023-08-24T05:37:13;19.80;99.90
15959;DHT22;8078;47.822;9.402;2023-08-24T05:39:39;19.90;99.90
15959;DHT22;8078;47.822;9.402;2023-08-24T05:42:05;19.90;99.90
15959;DHT22;8078;47.822;9.402;2023-08-24T05:44:31;20.00;99.90
15959;DHT22;8078;47.822;9.402;2023-08-24T05:46:56;20.10;99.90
15959;DHT22;8078;47.822;9.402;2023-08-24T05:49:22;20.30;99.90
15959;DHT22;8078;47.822;9.402;2023-08-24T05:51:50;20.50;99.90
15959;DHT22;8078;47.822;9.402;2023-08-24T05:54:16;20.60;99.90
15959;DHT22;8078;47.822;9.402;2023-08-24T05:56:45;20.80;99.90
15959;DHT22;8078;47.822;9.402;2023-08-24T05:59:11;20.90;99.90
15959;DHT22;8078;47.822;9.402;2023-08-24T06:01:37;21.10;99.90
15959;DHT22;8078;47.822;9.402;2023-08-24T06:04:05;21.20;99.90
15959;DHT22;8078;47.822;9.402;2023-08-24T06:06:30;21.30;99.90
15959;DHT22;8078;47.822;9.402;2023-08-24T06:08:56;21.40;99.90
15959;DHT22;8078;47.822;9.402;2023-08-24T06:11:22;21.40;99.90
15959;DHT22;8078;47.822;9.402;2023-08-24T06:13:48;21.60;99.90
15959;DHT22;8078;47.822;9.402;2023-08-24T06:16:14;21.60;99.90
15959;DHT22;8078;47.822;9.402;2023-08-24T06:18:39;21.70;99.90
15959;DHT22;8078;47.822;9.402;2023-08-24T06:21:05;21.80;99.90
15959;DHT22;8078;47.822;9.402;2023-08-24T06:23:30;21.80;99.90
15959;DHT22;8078;47.822;9.402;2023-08-24T06:25:56;21.90;99.90
15959;DHT22;8078;47.822;9.402;2023-08-24T06:28:21;21.80;99.90
15959;DHT22;8078;47.822;9.402;2023-08-24T06:30:47;21.70;99.90
15959;DHT22;8078;47.822;9.402;2023-08-24T06:33:13;21.70;99.90
15959;DHT22;8078;47.822;9.402;2023-08-24T06:35:39;21.80;99.90
15959;DHT22;8078;47.822;9.402;2023-08-24T06:38:05;21.90;99.90
15959;DHT22;8078;47.822;9.402;2023-08-24T06:40:31;22.00;99.00
15959;DHT22;8078;47.822;9.402;2023-08-24T06:42:57;22.20;91.60
15959;DHT22;8078;47.822;9.402;2023-08-24T06:45:23;22.40;91.80
15959;DHT22;8078;47.822;9.402;2023-08-24T06:47:48;22.50;81.70
15959;DHT22;8078;47.822;9.402;2023-08-24T06:50:14;22.60;79.90
15959;DHT22;8078;47.822;9.402;2023-08-24T06:52:41;22.70;79.00
15959;DHT22;8078;47.822;9.402;2023-08-24T06:55:08;22.90;78.00
15959;DHT22;8078;47.822;9.402;2023-08-24T06:57:35;23.00;74.60
15959;DHT22;8078;47.822;9.402;2023-08-24T07:00:00;23.20;81.80
15959;DHT22;8078;47.822;9.402;2023-08-24T07:02:26;23.40;74.20
15959;DHT22;8078;47.822;9.402;2023-08-24T07:04:51;23.50;77.90
15959;DHT22;8078;47.822;9.402;2023-08-24T07:07:17;23.70;85.80
15959;DHT22;8078;47.822;9.402;2023-08-24T07:09:43;23.90;81.20
15959;DHT22;8078;47.822;9.402;2023-08-24T07:12:09;23.90;77.80
15959;DHT22;8078;47.822;9.402;2023-08-24T07:14:38;24.10;74.80
15959;DHT22;8078;47.822;9.402;2023-08-24T07:17:05;24.20;80.00
15959;DHT22;8078;47.822;9.402;2023-08-24T07:19:31;24.20;78.90
15959;DHT22;8078;47.822;9.402;2023-08-24T07:21:57;24.30;76.00
15959;DHT22;8078;47.822;9.402;2023-08-24T07:24:22;24.40;78.60
15959;DHT22;8078;47.822;9.402;2023-08-24T07:26:54;24.40;83.10
15959;DHT22;8078;47.822;9.402;2023-08-24T07:29:21;24.70;88.80
15959;DHT22;8078;47.822;9.402;2023-08-24T07:31:46;25.00;91.10
15959;DHT22;8078;47.822;9.402;2023-08-24T07:34:12;25.10;92.50
15959;DHT22;8078;47.822;9.402;2023-08-24T07:36:38;25.30;95.10
15959;DHT22;8078;47.822;9.402;2023-08-24T07:39:04;25.60;98.10
15959;DHT22;8078;47.822;9.402;2023-08-24T07:41:30;25.90;97.90
15959;DHT22;8078;47.822;9.402;2023-08-24T07:43:55;26.00;99.90
15959;DHT22;8078;47.822;9.402;2023-08-24T07:46:21;26.10;99.90
15959;DHT22;8078;47.822;9.402;2023-08-24T07:48:47;25.90;96.10
15959;DHT22;8078;47.822;9.402;2023-08-24T07:51:12;25.90;96.10
15959;DHT22;8078;47.822;9.402;2023-08-24T07:53:38;25.80;93.30
15959;DHT22;8078;47.822;9.402;2023-08-24T07:56:03;25.70;90.50
15959;DHT22;8078;47.822;9.402;2023-08-24T07:58:29;25.60;86.20
15959;DHT22;8078;47.822;9.402;2023-08-24T08:00:57;25.50;86.00
15959;DHT22;8078;47.822;9.402;2023-08-24T08:03:22;25.50;80.00
15959;DHT22;8078;47.822;9.402;2023-08-24T08:05:48;25.50;82.90
15959;DHT22;8078;47.822;9.402;2023-08-24T08:08:14;25.50;88.90
15959;DHT22;8078;47.822;9.402;2023-08-24T08:10:40;25.60;90.20
15959;DHT22;8078;47.822;9.402;2023-08-24T08:13:07;25.50;86.40
15959;DHT22;8078;47.822;9.402;2023-08-24T08:15:33;25.70;90.10
15959;DHT22;8078;47.822;9.402;2023-08-24T08:17:58;26.00;91.90
15959;DHT22;8078;47.822;9.402;2023-08-24T08:20:24;26.30;94.40
15959;DHT22;8078;47.822;9.402;2023-08-24T08:22:49;26.50;97.20
15959;DHT22;8078;47.822;9.402;2023-08-24T08:25:15;26.50;95.20
15959;DHT22;8078;47.822;9.402;2023-08-24T08:27:43;26.70;98.10
15959;DHT22;8078;47.822;9.402;2023-08-24T08:30:10;26.90;99.90
15959;DHT22;8078;47.822;9.402;2023-08-24T08:32:35;27.10;99.90
15959;DHT22;8078;47.822;9.402;2023-08-24T08:35:01;27.20;99.90
15959;DHT22;8078;47.822;9.402;2023-08-24T08:37:27;27.50;99.90
15959;DHT22;8078;47.822;9.402;2023-08-24T08:39:53;27.80;99.90
15959;DHT22;8078;47.822;9.402;2023-08-24T08:42:18;28.10;99.90
15959;DHT22;8078;47.822;9.402;2023-08-24T08:44:46;28.50;99.90
15959;DHT22;8078;47.822;9.402;2023-08-24T08:47:12;29.10;99.90
15959;DHT22;8078;47.822;9.402;2023-08-24T08:49:39;29.40;99.90
15959;DHT22;8078;47.822;9.402;2023-08-24T08:52:05;29.60;99.90
15959;DHT22;8078;47.822;9.402;2023-08-24T08:54:31;29.60;99.90
15959;DHT22;8078;47.822;9.402;2023-08-24T08:57:01;29.70;99.90
15959;DHT22;8078;47.822;9.402;2023-08-24T08:59:30;29.10;99.90
15959;DHT22;8078;47.822;9.402;2023-08-24T09:02:01;29.00;99.90
15959;DHT22;8078;47.822;9.402;2023-08-24T09:04:29;28.60;99.90
15959;DHT22;8078;47.822;9.402;2023-08-24T09:06:55;28.80;99.90
15959;DHT22;8078;47.822;9.402;2023-08-24T09:09:21;28.90;99.90
15959;DHT22;8078;47.822;9.402;2023-08-24T09:11:48;28.80;99.90
15959;DHT22;8078;47.822;9.402;2023-08-24T09:14:14;28.90;99.90
15959;DHT22;8078;47.822;9.402;2023-08-24T09:16:41;29.10;99.90
15959;DHT22;8078;47.822;9.402;2023-08-24T09:19:06;29.30;99.90
15959;DHT22;8078;47.822;9.402;2023-08-24T09:21:37;29.20;99.90
15959;DHT22;8078;47.822;9.402;2023-08-24T09:24:03;29.50;99.90
15959;DHT22;8078;47.822;9.402;2023-08-24T09:26:37;29.50;99.90
15959;DHT22;8078;47.822;9.402;2023-08-24T09:29:15;29.30;99.90
15959;DHT22;8078;47.822;9.402;2023-08-24T09:31:42;29.50;99.90
15959;DHT22;8078;47.822;9.402;2023-08-24T09:34:10;29.50;99.90
15959;DHT22;8078;47.822;9.402;2023-08-24T09:36:37;29.50;99.90
15959;DHT22;8078;47.822;9.402;2023-08-24T09:39:03;29.40;99.90
15959;DHT22;8078;47.822;9.402;2023-08-24T09:41:49;29.70;99.90
15959;DHT22;8078;47.822;9.402;2023-08-24T09:44:14;29.50;99.90
15959;DHT22;8078;47.822;9.402;2023-08-24T09:46:43;29.60;99.90
15959;DHT22;8078;47.822;9.402;2023-08-24T09:49:10;29.70;99.90
15959;DHT22;8078;47.822;9.402;2023-08-24T09:51:38;30.10;99.90
15959;DHT22;8078;47.822;9.402;2023-08-24T09:54:08;30.40;99.90
15959;DHT22;8078;47.822;9.402;2023-08-24T09:56:39;30.30;99.90
15959;DHT22;8078;47.822;9.402;2023-08-24T09:59:18;30.30;99.90
15959;DHT22;8078;47.822;9.402;2023-08-24T10:01:48;30.40;99.90
15959;DHT22;8078;47.822;9.402;2023-08-24T10:04:29;30.50;99.90
15959;DHT22;8078;47.822;9.402;2023-08-24T10:06:59;30.00;99.90
15959;DHT22;8078;47.822;9.402;2023-08-24T10:09:31;30.20;99.90
15959;DHT22;8078;47.822;9.402;2023-08-24T10:12:02;30.30;99.90
15959;DHT22;8078;47.822;9.402;2023-08-24T10:14:30;30.00;99.90
15959;DHT22;8078;47.822;9.402;2023-08-24T10:16:57;30.30;99.90
15959;DHT22;8078;47.822;9.402;2023-08-24T10:19:24;30.70;99.90
15959;DHT22;8078;47.822;9.402;2023-08-24T10:21:51;30.90;99.90
15959;DHT22;8078;47.822;9.402;2023-08-24T10:24:19;31.10;99.90
15959;DHT22;8078;47.822;9.402;2023-08-24T10:26:46;31.40;99.90
15959;DHT22;8078;47.822;9.402;2023-08-24T10:29:12;31.50;99.90
15959;DHT22;8078;47.822;9.402;2023-08-24T10:31:40;31.50;99.90
15959;DHT22;8078;47.822;9.402;2023-08-24T10:34:07;31.60;99.90
15959;DHT22;8078;47.822;9.402;2023-08-24T10:36:32;32.00;99.90
15959;DHT22;8078;47.822;9.402;2023-08-24T10:39:02;32.00;99.90
15959;DHT22;8078;47.822;9.402;2023-08-24T10:41:47;31.80;99.90
15959;DHT22;8078;47.822;9.402;2023-08-24T10:44:35;32.00;99.90
15959;DHT22;8078;47.822;9.402;2023-08-24T10:47:18;30.80;99.90
15959;DHT22;8078;47.822;9.402;2023-08-24T10:54:50;28.80;92.80
15959;DHT22;8078;47.822;9.402;2023-08-24T10:57:36;28.30;80.90
15959;DHT22;8078;47.822;9.402;2023-08-24T11:00:06;28.30;76.90
15959;DHT22;8078;47.822;9.402;2023-08-24T11:05:25;28.50;90.40
15959;DHT22;8078;47.822;9.402;2023-08-24T11:08:03;28.50;84.50
15959;DHT22;8078;47.822;9.402;2023-08-24T11:13:12;28.50;83.50
15959;DHT22;8078;47.822;9.402;2023-08-24T11:15:50;28.90;93.30
15959;DHT22;8078;47.822;9.402;2023-08-24T11:18:26;29.10;96.30
15959;DHT22;8078;47.822;9.402;2023-08-24T11:23:23;29.00;94.00
15959;DHT22;8078;47.822;9.402;2023-08-24T11:25:54;29.30;97.80
15959;DHT22;8078;47.822;9.402;2023-08-24T11:28:22;29.50;98.80
15959;DHT22;8078;47.822;9.402;2023-08-24T11:30:48;29.10;94.70
15959;DHT22;8078;47.822;9.402;2023-08-24T11:33:14;28.90;93.70
15959;DHT22;8078;47.822;9.402;2023-08-24T11:35:43;29.00;85.20
15959;DHT22;8078;47.822;9.402;2023-08-24T11:38:09;29.20;90.80
15959;DHT22;8078;47.822;9.402;2023-08-24T11:40:35;28.90;81.10
15959;DHT22;8078;47.822;9.402;2023-08-24T11:43:01;29.00;90.00
15959;DHT22;8078;47.822;9.402;2023-08-24T11:45:34;29.70;97.90
15959;DHT22;8078;47.822;9.402;2023-08-24T11:48:02;29.80;96.10
15959;DHT22;8078;47.822;9.402;2023-08-24T11:50:30;29.40;96.50
15959;DHT22;8078;47.822;9.402;2023-08-24T11:52:55;29.60;92.50
15959;DHT22;8078;47.822;9.402;2023-08-24T11:55:24;29.60;93.10
15959;DHT22;8078;47.822;9.402;2023-08-24T11:57:51;29.70;95.60
15959;DHT22;8078;47.822;9.402;2023-08-24T12:00:19;29.60;93.90
15959;DHT22;8078;47.822;9.402;2023-08-24T12:02:46;30.30;99.90
15959;DHT22;8078;47.822;9.402;2023-08-24T12:05:25;30.00;96.40
15959;DHT22;8078;47.822;9.402;2023-08-24T12:07:52;29.70;94.10
15959;DHT22;8078;47.822;9.402;2023-08-24T12:10:19;29.80;92.30
15959;DHT22;8078;47.822;9.402;2023-08-24T12:12:46;29.40;89.80
15959;DHT22;8078;47.822;9.402;2023-08-24T12:15:18;29.70;90.80
15959;DHT22;8078;47.822;9.402;2023-08-24T12:17:46;30.00;95.00
15959;DHT22;8078;47.822;9.402;2023-08-24T12:20:22;30.20;95.90
15959;DHT22;8078;47.822;9.402;2023-08-24T12:22:55;30.80;99.90
15959;DHT22;8078;47.822;9.402;2023-08-24T12:25:24;30.40;95.50
15959;DHT22;8078;47.822;9.402;2023-08-24T12:27:51;30.20;93.20
15959;DHT22;8078;47.822;9.402;2023-08-24T12:30:18;29.80;89.00
15959;DHT22;8078;47.822;9.402;2023-08-24T12:32:45;29.70;91.70
15959;DHT22;8078;47.822;9.402;2023-08-24T12:35:13;29.80;93.20
15959;DHT22;8078;47.822;9.402;2023-08-24T12:37:39;30.10;93.30
15959;DHT22;8078;47.822;9.402;2023-08-24T12:40:06;30.60;99.90
15959;DHT22;8078;47.822;9.402;2023-08-24T12:42:32;30.20;93.70
15959;DHT22;8078;47.822;9.402;2023-08-24T12:44:57;29.60;87.70
15959;DHT22;8078;47.822;9.402;2023-08-24T12:47:23;29.70;88.90
15959;DHT22;8078;47.822;9.402;2023-08-24T12:49:49;29.80;89.40
15959;DHT22;8078;47.822;9.402;2023-08-24T12:52:16;29.70;87.80
15959;DHT22;8078;47.822;9.402;2023-08-24T12:54:42;29.70;87.50
15959;DHT22;8078;47.822;9.402;2023-08-24T12:57:08;30.30;96.90
15959;DHT22;8078;47.822;9.402;2023-08-24T12:59:33;30.40;95.20
15959;DHT22;8078;47.822;9.402;2023-08-24T13:01:59;30.60;96.30
15959;DHT22;8078;47.822;9.402;2023-08-24T13:04:25;30.40;96.60
15959;DHT22;8078;47.822;9.402;2023-08-24T13:06:52;30.60;95.70
15959;DHT22;8078;47.822;9.402;2023-08-24T13:09:17;30.40;98.10
15959;DHT22;8078;47.822;9.402;2023-08-24T13:11:43;31.00;99.90
15959;DHT22;8078;47.822;9.402;2023-08-24T13:14:09;30.90;98.90
15959;DHT22;8078;47.822;9.402;2023-08-24T13:16:34;30.50;94.90
15959;DHT22;8078;47.822;9.402;2023-08-24T13:19:00;30.30;93.00
15959;DHT22;8078;47.822;9.402;2023-08-24T13:21:25;30.60;97.10
15959;DHT22;8078;47.822;9.402;2023-08-24T13:23:52;31.00;99.90
15959;DHT22;8078;47.822;9.402;2023-08-24T13:26:21;30.40;92.90
15959;DHT22;8078;47.822;9.402;2023-08-24T13:28:48;30.60;94.50
15959;DHT22;8078;47.822;9.402;2023-08-24T13:31:14;30.30;92.70
15959;DHT22;8078;47.822;9.402;2023-08-24T13:33:40;30.30;91.30
15959;DHT22;8078;47.822;9.402;2023-08-24T13:36:06;30.60;94.60
15959;DHT22;8078;47.822;9.402;2023-08-24T13:38:31;30.50;92.50
15959;DHT22;8078;47.822;9.402;2023-08-24T13:40:57;30.90;97.00
15959;DHT22;8078;47.822;9.402;2023-08-24T13:43:22;30.90;97.30
15959;DHT22;8078;47.822;9.402;2023-08-24T13:45:48;30.90;93.60
15959;DHT22;8078;47.822;9.402;2023-08-24T13:48:14;30.70;93.80
15959;DHT22;8078;47.822;9.402;2023-08-24T13:50:41;30.50;86.50
15959;DHT22;8078;47.822;9.402;2023-08-24T13:53:07;30.60;90.80
15959;DHT22;8078;47.822;9.402;2023-08-24T13:55:32;30.30;85.30
15959;DHT22;8078;47.822;9.402;2023-08-24T13:57:58;30.30;84.80
15959;DHT22;8078;47.822;9.402;2023-08-24T14:00:24;30.70;92.50
15959;DHT22;8078;47.822;9.402;2023-08-24T14:02:50;31.30;99.00
15959;DHT22;8078;47.822;9.402;2023-08-24T14:05:16;31.00;96.10
15959;DHT22;8078;47.822;9.402;2023-08-24T14:07:42;31.30;94.30
15959;DHT22;8078;47.822;9.402;2023-08-24T14:10:08;31.30;96.80
15959;DHT22;8078;47.822;9.402;2023-08-24T14:12:33;31.60;99.90
15959;DHT22;8078;47.822;9.402;2023-08-24T14:15:00;31.80;99.90
15959;DHT22;8078;47.822;9.402;2023-08-24T14:17:25;31.50;97.60
15959;DHT22;8078;47.822;9.402;2023-08-24T14:19:51;31.00;93.30
15959;DHT22;8078;47.822;9.402;2023-08-24T14:22:17;31.00;93.60
15959;DHT22;8078;47.822;9.402;2023-08-24T14:24:42;30.80;93.20
15959;DHT22;8078;47.822;9.402;2023-08-24T14:27:08;30.50;90.20
15959;DHT22;8078;47.822;9.402;2023-08-24T14:29:33;31.00;94.10
15959;DHT22;8078;47.822;9.402;2023-08-24T14:31:59;30.80;92.90
15959;DHT22;8078;47.822;9.402;2023-08-24T14:34:24;31.30;98.10
15959;DHT22;8078;47.822;9.402;2023-08-24T14:36:50;31.50;98.20
15959;DHT22;8078;47.822;9.402;2023-08-24T14:39:16;31.80;99.00
15959;DHT22;8078;47.822;9.402;2023-08-24T14:41:41;31.50;97.00
15959;DHT22;8078;47.822;9.402;2023-08-24T14:44:07;31.30;95.40
15959;DHT22;8078;47.822;9.402;2023-08-24T14:46:33;31.20;94.90
15959;DHT22;8078;47.822;9.402;2023-08-24T14:48:59;31.50;96.40
15959;DHT22;8078;47.822;9.402;2023-08-24T14:51:25;31.50;94.80
15959;DHT22;8078;47.822;9.402;2023-08-24T14:53:50;31.60;98.70
15959;DHT22;8078;47.822;9.402;2023-08-24T14:56:16;31.80;97.70
15959;DHT22;8078;47.822;9.402;2023-08-24T14:58:41;31.80;97.20
15959;DHT22;8078;47.822;9.402;2023-08-24T15:01:07;32.10;99.90
15959;DHT22;8078;47.822;9.402;2023-08-24T15:03:32;31.50;94.80
15959;DHT22;8078;47.822;9.402;2023-08-24T15:06:00;30.90;84.00
15959;DHT22;8078;47.822;9.402;2023-08-24T15:08:27;30.70;82.60
15959;DHT22;8078;47.822;9.402;2023-08-24T15:10:54;31.00;84.20
15959;DHT22;8078;47.822;9.402;2023-08-24T15:13:21;30.90;80.20
15959;DHT22;8078;47.822;9.402;2023-08-24T15:15:46;30.80;74.10
15959;DHT22;8078;47.822;9.402;2023-08-24T15:18:12;31.00;79.40
15959;DHT22;8078;47.822;9.402;2023-08-24T15:20:37;31.00;83.60
15959;DHT22;8078;47.822;9.402;2023-08-24T15:23:03;30.90;81.80
15959;DHT22;8078;47.822;9.402;2023-08-24T15:25:29;31.30;89.90
15959;DHT22;8078;47.822;9.402;2023-08-24T15:27:54;31.80;93.60
15959;DHT22;8078;47.822;9.402;2023-08-24T15:30:20;31.80;93.00
15959;DHT22;8078;47.822;9.402;2023-08-24T15:32:45;32.10;98.40
15959;DHT22;8078;47.822;9.402;2023-08-24T15:35:11;32.40;99.90
15959;DHT22;8078;47.822;9.402;2023-08-24T15:37:37;32.50;99.90
15959;DHT22;8078;47.822;9.402;2023-08-24T15:40:05;31.90;94.70
15959;DHT22;8078;47.822;9.402;2023-08-24T15:42:31;32.10;96.20
15959;DHT22;8078;47.822;9.402;2023-08-24T15:44:56;32.60;99.90
15959;DHT22;8078;47.822;9.402;2023-08-24T15:49:48;33.40;99.90
15959;DHT22;8078;47.822;9.402;2023-08-24T15:52:14;33.10;99.90
15959;DHT22;8078;47.822;9.402;2023-08-24T15:54:39;32.20;99.10
15959;DHT22;8078;47.822;9.402;2023-08-24T15:57:05;32.30;99.90
15959;DHT22;8078;47.822;9.402;2023-08-24T15:59:30;32.90;99.90
15959;DHT22;8078;47.822;9.402;2023-08-24T16:01:56;33.60;99.90
15959;DHT22;8078;47.822;9.402;2023-08-24T16:04:21;34.00;99.90